Main page
METAR-TAF:

METAR-TAF

Airports :

NWS Office

Pohnpei, Micronesia

latitude: 06-58N, longitude: 158-13E, elevation: 39 m

Current weather observation

The report was made 26 minutes ago, at 21:51 UTC
Wind 6 kt from the East
Temperature 28°C
Humidity 79%
Pressure 1010 hPa
Visibility: 24.1 km
Scattered clouds at a height of 1800 ft
Broken clouds at a height of 13000 ft
Overcast at a height of 30000 ft

METAR: PTTP 162151Z 08006KT 15SM SCT018 BKN130 OVC300 28/24 A2983 RMK SLP100 T02800236

Time: 09:17 (22:17 UTC)


TAF: missing

Weather observations and forecasts of more than 4000 airports (METAR and TAF reports).

The available stations are represented by yellow and red dots on the map.

Hover mouse over dot to see the name of the station.

Then click to see weather observations and forecasts.

To change the map : click on the green buttons with a black cross to zoom in, on the green button with a dash to zoom out, or on the green arrows for adjacent maps.


METAR-TAF: